createdAt,value
2023-02-05T00:05:09.412Z,0
2023-02-05T00:11:32.331Z,0
2023-02-05T00:17:52.406Z,0
2023-02-05T00:24:15.352Z,0
2023-02-05T00:30:35.513Z,0
2023-02-05T00:36:58.397Z,0
2023-02-05T00:43:18.463Z,0
2023-02-05T00:49:41.361Z,0
2023-02-05T00:56:01.401Z,0
2023-02-05T01:02:24.473Z,0
2023-02-05T01:08:44.403Z,0
2023-02-05T01:15:07.415Z,0
2023-02-05T01:21:27.371Z,0
2023-02-05T01:27:50.835Z,0
2023-02-05T01:34:10.442Z,0
2023-02-05T01:40:33.424Z,0
2023-02-05T01:46:53.395Z,0
2023-02-05T01:53:16.398Z,0
2023-02-05T01:59:36.363Z,0
2023-02-05T02:05:59.436Z,0
2023-02-05T02:12:19.356Z,0
2023-02-05T02:18:42.345Z,0
2023-02-05T02:25:02.363Z,0
2023-02-05T02:31:25.468Z,0
2023-02-05T02:37:45.329Z,0
2023-02-05T02:44:08.396Z,0
2023-02-05T02:50:28.365Z,0
2023-02-05T02:56:51.470Z,0
2023-02-05T03:03:11.450Z,0
2023-02-05T03:09:34.441Z,0
2023-02-05T03:15:54.512Z,0
2023-02-05T03:22:17.621Z,0
2023-02-05T03:28:37.370Z,0
2023-02-05T03:35:00.394Z,0
2023-02-05T03:41:20.352Z,0
2023-02-05T03:47:43.383Z,0
2023-02-05T03:54:05.171Z,0
2023-02-05T04:00:28.379Z,0
2023-02-05T04:06:48.379Z,0
2023-02-05T04:29:36.375Z,0
2023-02-05T04:35:59.322Z,0
2023-02-05T04:42:19.348Z,0
2023-02-05T04:48:42.382Z,0
2023-02-05T04:55:02.339Z,0
2023-02-05T05:01:25.372Z,0
2023-02-05T05:07:45.492Z,0
2023-02-05T05:14:08.360Z,0
2023-02-05T05:20:28.391Z,0
2023-02-05T05:26:51.535Z,0
2023-02-05T05:33:11.382Z,0
2023-02-05T05:39:34.403Z,0
2023-02-05T05:45:54.392Z,0
2023-02-05T05:52:17.325Z,0
2023-02-05T05:58:37.455Z,0
2023-02-05T06:05:00.421Z,0
2023-02-05T06:11:20.418Z,0
2023-02-05T06:17:43.312Z,0
2023-02-05T06:24:03.357Z,0
2023-02-05T06:30:26.414Z,0
2023-02-05T06:36:46.392Z,1
2023-02-05T06:43:09.369Z,1
2023-02-05T06:49:29.403Z,1
2023-02-05T06:55:52.332Z,6
2023-02-05T07:02:12.601Z,25
2023-02-05T07:08:35.410Z,42
2023-02-05T07:14:55.385Z,77
2023-02-05T07:21:18.489Z,151
2023-02-05T07:27:38.364Z,140
2023-02-05T07:34:01.430Z,193
2023-02-05T07:40:21.365Z,89
2023-02-05T07:46:44.384Z,182
2023-02-05T07:53:04.457Z,185
2023-02-05T07:59:27.413Z,344
2023-02-05T08:05:47.405Z,230
2023-02-05T08:12:10.375Z,323
2023-02-05T08:18:30.385Z,259
2023-02-05T08:24:53.383Z,206
2023-02-05T08:31:13.445Z,306
2023-02-05T08:37:37.521Z,150
2023-02-05T08:43:57.389Z,227
2023-02-05T08:50:20.561Z,421
2023-02-05T08:56:40.489Z,255
2023-02-05T09:03:03.366Z,396
2023-02-05T09:09:23.417Z,439
2023-02-05T09:15:48.435Z,322
2023-02-05T09:22:06.408Z,193
2023-02-05T09:38:34.318Z,462
2023-02-05T09:44:54.353Z,419
2023-02-05T09:51:17.448Z,504
2023-02-05T09:57:37.475Z,664
2023-02-05T10:04:00.447Z,638
2023-02-05T10:10:20.426Z,1394
2023-02-05T10:16:43.416Z,2290
2023-02-05T10:23:03.400Z,1905
2023-02-05T10:29:26.400Z,1193
2023-02-05T10:35:46.443Z,1134
2023-02-05T10:42:09.392Z,907
2023-02-05T10:48:29.402Z,1005
2023-02-05T10:54:52.399Z,1362
2023-02-05T11:01:12.381Z,1347
2023-02-05T11:07:35.468Z,803
2023-02-05T11:13:55.455Z,696
2023-02-05T11:20:18.393Z,1549
2023-02-05T11:26:38.721Z,1585
2023-02-05T11:33:01.542Z,1237
2023-02-05T11:39:21.359Z,958
2023-02-05T11:45:44.475Z,986
2023-02-05T11:52:04.420Z,1071
2023-02-05T11:58:36.020Z,1010
2023-02-05T12:04:47.359Z,935
2023-02-05T12:11:10.426Z,968
2023-02-05T12:17:30.471Z,1130
2023-02-05T12:23:53.406Z,822
2023-02-05T12:30:13.420Z,965
2023-02-05T12:36:36.424Z,744
2023-02-05T12:42:56.373Z,735
2023-02-05T12:49:19.447Z,694
2023-02-05T12:55:39.367Z,641
2023-02-05T13:02:02.420Z,767
2023-02-05T13:08:22.460Z,715
2023-02-05T13:14:45.453Z,861
2023-02-05T13:21:05.527Z,843
2023-02-05T13:27:28.468Z,615
2023-02-05T13:33:48.426Z,678
2023-02-05T13:40:11.427Z,692
2023-02-05T13:46:31.652Z,751
2023-02-05T13:52:54.418Z,500
2023-02-05T13:59:14.412Z,608
2023-02-05T14:05:37.441Z,481
2023-02-05T14:11:57.365Z,405
2023-02-05T14:18:20.385Z,315
2023-02-05T14:24:40.417Z,298
2023-02-05T14:47:46.287Z,392
2023-02-05T14:54:09.325Z,332
2023-02-05T15:00:29.350Z,169
2023-02-05T15:06:52.401Z,161
2023-02-05T15:13:12.370Z,346
2023-02-05T15:19:35.510Z,208
2023-02-05T15:25:55.480Z,221
2023-02-05T15:32:18.409Z,254
2023-02-05T15:38:38.480Z,253
2023-02-05T15:45:01.539Z,262
2023-02-05T15:51:21.429Z,272
2023-02-05T15:57:44.387Z,184
2023-02-05T16:04:04.505Z,150
2023-02-05T16:10:27.393Z,124
2023-02-05T16:16:47.360Z,81
2023-02-05T16:23:10.485Z,28
2023-02-05T16:29:36.163Z,35
2023-02-05T16:35:53.486Z,12
2023-02-05T16:42:13.450Z,4
2023-02-05T16:48:36.408Z,2
2023-02-05T16:54:56.541Z,1
2023-02-05T17:01:19.387Z,0
2023-02-05T17:07:39.662Z,0
2023-02-05T17:14:02.379Z,0
2023-02-05T17:20:22.421Z,0
2023-02-05T17:26:45.395Z,0
2023-02-05T17:33:05.386Z,0
2023-02-05T17:39:28.511Z,0
2023-02-05T17:45:48.528Z,0
2023-02-05T17:52:11.396Z,0
2023-02-05T17:58:31.442Z,0
2023-02-05T18:04:54.383Z,0
2023-02-05T18:11:14.392Z,0
2023-02-05T18:17:37.472Z,0
2023-02-05T18:23:57.393Z,0
2023-02-05T18:30:20.461Z,0
2023-02-05T18:36:40.393Z,0
2023-02-05T18:43:03.387Z,0
2023-02-05T18:49:23.403Z,0
2023-02-05T18:55:46.403Z,0
2023-02-05T19:02:06.434Z,0
2023-02-05T19:08:29.319Z,0
2023-02-05T19:14:49.367Z,0
2023-02-05T19:21:12.679Z,0
2023-02-05T19:27:32.414Z,0
2023-02-05T19:33:55.508Z,0
2023-02-05T19:40:15.348Z,0
2023-02-05T19:56:07.313Z,0
2023-02-05T20:02:27.645Z,0
2023-02-05T20:08:50.598Z,0
2023-02-05T20:15:10.446Z,0
2023-02-05T20:21:33.411Z,0
2023-02-05T20:27:53.456Z,0
2023-02-05T20:34:18.532Z,0
2023-02-05T20:40:38.349Z,0
2023-02-05T20:47:01.829Z,0
2023-02-05T20:53:23.396Z,0
2023-02-05T20:59:47.359Z,0
2023-02-05T21:06:08.409Z,0
2023-02-05T21:12:31.388Z,0
2023-02-05T21:18:51.504Z,0
2023-02-05T21:25:14.357Z,0
2023-02-05T21:31:34.482Z,0
2023-02-05T21:37:57.427Z,0
2023-02-05T21:44:17.401Z,0
2023-02-05T21:50:40.470Z,0
2023-02-05T21:57:00.330Z,0
2023-02-05T22:03:23.398Z,0
2023-02-05T22:09:43.442Z,0
2023-02-05T22:16:06.439Z,0
2023-02-05T22:22:26.453Z,0
2023-02-05T22:28:49.442Z,0
2023-02-05T22:35:09.406Z,0
2023-02-05T22:41:32.457Z,0
2023-02-05T22:47:52.360Z,0
2023-02-05T22:54:15.438Z,0
2023-02-05T23:00:35.450Z,0
2023-02-05T23:23:32.349Z,0
2023-02-05T23:29:52.331Z,0
2023-02-05T23:36:15.359Z,0
2023-02-05T23:42:35.507Z,0
2023-02-05T23:48:58.400Z,0
2023-02-05T23:55:18.388Z,0
